Time;durP1;ratioP1;P1;durP2;ratioP2;P2;SDS_P1;SDS_P2;PMS_P1;PMS_P2;Temp;Humidity;BMP_temperature;BMP_pressure;BME280_temperature;BME280_humidity;BME280_pressure;Samples;Min_cycle;Max_cycle;Signal;HPM_P1;HPM_P2
2021/05/24 00:00:17;;;;;;;3.65;1.10;;;;;;;14.13;71.27;100759.19;10285908;28;20051;-79
2021/05/24 00:05:21;;;;;;;4.95;1.05;;;;;;;13.70;72.44;100704.72;10259378;28;20813;-79
2021/05/24 00:10:24;;;;;;;4.80;1.00;;;;;;;13.82;70.86;100723.38;10275092;28;20034;-79
2021/05/24 00:15:30;;;;;;;5.85;0.98;;;;;;;13.69;71.83;100705.91;10252157;28;20054;-79
2021/05/24 00:20:35;;;;;;;2.97;0.90;;;;;;;13.84;70.88;100714.84;10294970;28;20045;-82
2021/05/24 00:25:37;;;;;;;5.50;1.00;;;;;;;13.79;71.43;100702.44;10293046;28;20050;-81
2021/05/24 00:30:42;;;;;;;3.23;1.10;;;;;;;13.93;70.61;100702.47;10291503;28;20046;-79
2021/05/24 00:35:42;;;;;;;3.10;0.95;;;;;;;13.85;70.29;100684.59;10244352;28;20670;-79
2021/05/24 00:40:44;;;;;;;2.63;0.95;;;;;;;13.47;70.37;100608.03;10278651;28;20031;-79
2021/05/24 00:45:44;;;;;;;4.30;1.38;;;;;;;13.79;70.85;100648.09;10265374;28;20043;-81
2021/05/24 00:50:45;;;;;;;4.45;1.17;;;;;;;13.85;70.46;100635.69;10302747;28;20046;-79
2021/05/24 00:55:45;;;;;;;3.40;0.95;;;;;;;13.80;68.43;100600.72;10266760;28;20062;-80
2021/05/24 01:00:50;;;;;;;5.28;0.88;;;;;;;14.20;69.03;100672.19;10262730;28;20038;-80
2021/05/24 01:05:54;;;;;;;2.67;0.93;;;;;;;14.30;68.95;100676.09;10276082;28;20046;-80
2021/05/24 01:10:55;;;;;;;3.75;0.90;;;;;;;14.06;68.16;100606.97;10261361;28;20476;-79
2021/05/24 01:15:58;;;;;;;3.53;1.00;;;;;;;14.31;68.66;100662.09;10284090;28;20039;-79
2021/05/24 01:20:58;;;;;;;5.90;1.00;;;;;;;14.10;69.16;100629.50;10283070;28;20443;-80
2021/05/24 01:25:59;;;;;;;3.13;0.73;;;;;;;14.25;64.63;100647.38;10261428;28;20081;-80
2021/05/24 01:31:03;;;;;;;2.95;1.13;;;;;;;14.24;68.44;100662.09;10254322;28;20081;-79
2021/05/24 01:36:08;;;;;;;3.75;1.35;;;;;;;14.00;70.85;100654.72;10298926;28;20041;-79
2021/05/24 01:41:12;;;;;;;2.95;0.85;;;;;;;13.72;71.34;100642.66;10279656;28;20034;-79
2021/05/24 01:46:13;;;;;;;3.20;0.73;;;;;;;13.52;72.48;100662.00;10260248;28;20134;-79
2021/05/24 01:51:14;;;;;;;4.47;1.02;;;;;;;13.27;73.33;100666.53;10298574;28;20102;-78
2021/05/24 01:56:14;;;;;;;2.22;0.90;;;;;;;12.78;77.03;100630.63;10280926;28;20027;-80
2021/05/24 02:01:15;;;;;;;2.17;0.70;;;;;;;12.63;77.98;100673.16;10278053;28;20476;-79
2021/05/24 02:06:15;;;;;;;3.25;0.68;;;;;;;12.67;81.06;100684.78;10277533;28;20038;-79
2021/05/24 02:11:16;;;;;;;6.63;0.80;;;;;;;12.38;79.98;100693.88;10274920;28;20041;-79
2021/05/24 02:16:21;;;;;;;2.30;0.70;;;;;;;12.00;83.29;100674.19;10263539;28;20053;-81
2021/05/24 02:21:21;;;;;;;3.47;0.70;;;;;;;12.00;86.80;100696.63;10280660;28;20077;-79
2021/05/24 02:26:22;;;;;;;3.72;0.73;;;;;;;11.92;90.25;100694.97;10246525;28;20938;-80
2021/05/24 02:31:23;;;;;;;4.20;0.93;;;;;;;11.63;93.88;100655.97;10279267;28;20046;-79
2021/05/24 02:36:26;;;;;;;2.97;0.85;;;;;;;11.53;97.40;100645.81;10290469;28;20057;-79
2021/05/24 02:41:27;;;;;;;2.72;0.90;;;;;;;11.84;98.41;100683.28;10250545;28;20042;-79
2021/05/24 02:46:27;;;;;;;4.28;0.98;;;;;;;11.71;97.66;100679.28;10280406;28;20049;-79
2021/05/24 02:51:28;;;;;;;1.70;0.52;;;;;;;11.59;94.81;100687.63;10280429;28;20047;-80
2021/05/24 02:56:28;;;;;;;2.40;0.75;;;;;;;11.53;94.08;100675.59;10258966;28;20070;-79
2021/05/24 03:01:32;;;;;;;3.75;0.75;;;;;;;11.36;95.66;100675.00;10242795;28;20101;-79
2021/05/24 03:06:33;;;;;;;2.80;0.77;;;;;;;11.34;94.81;100666.47;10275943;28;20073;-79
2021/05/24 03:11:33;;;;;;;1.40;0.70;;;;;;;11.28;95.93;100665.22;10253584;28;20085;-79
2021/05/24 03:16:34;;;;;;;1.23;0.40;;;;;;;11.28;96.27;100654.41;10259521;28;20137;-79
2021/05/24 03:21:35;;;;;;;1.70;0.60;;;;;;;11.18;98.07;100657.78;10278420;28;20050;-79
2021/05/24 03:26:36;;;;;;;3.30;0.75;;;;;;;11.17;98.50;100650.78;10238143;28;20480;-80
2021/05/24 03:31:37;;;;;;;3.35;0.60;;;;;;;11.09;99.69;100638.31;10256749;28;20097;-80
2021/05/24 03:36:41;;;;;;;5.78;0.80;;;;;;;10.62;99.92;100555.81;10265521;28;20150;-80
2021/05/24 03:41:44;;;;;;;1.30;0.50;;;;;;;11.03;100.00;100634.38;10259812;28;20042;-80
2021/05/24 03:46:56;;;;;;;;;;;;;;;;;;;;;
2021/05/24 03:52:18;;;;;;;3.13;0.60;;;;;;;11.23;100.00;100681.78;10261400;28;20414;-78
2021/05/24 03:57:55;;;;;;;;;;;;;;;;;;;;;
2021/05/24 04:02:56;;;;;;;1.60;0.70;;;;;;;11.16;99.38;100654.66;10255756;28;20054;-78
2021/05/24 04:08:09;;;;;;;3.78;0.63;;;;;;;11.14;99.39;100646.13;10257108;28;20038;-78
2021/05/24 04:13:35;;;;;;;2.00;0.75;;;;;;;10.61;98.51;100581.31;10263853;28;20303;-78
2021/05/24 04:18:58;;;;;;;2.78;0.80;;;;;;;10.14;99.26;100489.53;10281599;28;20116;-79
2021/05/24 04:24:21;;;;;;;4.18;0.77;;;;;;;10.67;100.00;100582.53;10287996;28;20531;-79
2021/05/24 04:29:22;;;;;;;2.65;0.60;;;;;;;10.41;100.00;100550.91;10295256;28;20373;-78
2021/05/24 04:34:22;;;;;;;4.60;1.30;;;;;;;11.04;100.00;100641.34;10227197;28;20034;-79
2021/05/24 04:39:30;;;;;;;1.73;0.82;;;;;;;10.99;100.00;100639.75;10278857;28;20117;-79
2021/05/24 04:44:32;;;;;;;8.52;0.95;;;;;;;10.83;100.00;100593.94;10278055;28;20323;-78
2021/05/24 04:49:32;;;;;;;2.47;0.80;;;;;;;10.96;100.00;100625.03;10251665;28;20498;-78
2021/05/24 04:54:33;;;;;;;3.60;0.70;;;;;;;10.96;100.00;100618.84;10267652;28;20039;-78
2021/05/24 04:59:36;;;;;;;4.13;1.20;;;;;;;10.74;100.00;100579.94;10278876;28;20091;-78
2021/05/24 05:04:40;;;;;;;5.03;0.80;;;;;;;10.88;100.00;100623.38;10260973;28;20035;-77
2021/05/24 05:09:41;;;;;;;2.43;0.90;;;;;;;10.82;100.00;100619.44;10306898;28;20050;-78
2021/05/24 05:14:42;;;;;;;1.83;0.75;;;;;;;10.66;100.00;100599.91;10266686;28;20065;-78
2021/05/24 05:19:45;;;;;;;1.65;0.70;;;;;;;10.71;100.00;100596.88;10262025;28;20051;-79
2021/05/24 05:24:48;;;;;;;2.33;0.80;;;;;;;11.05;100.00;100638.28;10283938;28;20050;-78
2021/05/24 05:29:51;;;;;;;2.70;1.00;;;;;;;10.84;100.00;100627.97;10262984;28;20074;-78
2021/05/24 05:34:52;;;;;;;4.30;0.90;;;;;;;10.90;100.00;100648.13;10281592;28;20049;-78
2021/05/24 05:39:55;;;;;;;3.05;0.88;;;;;;;10.82;100.00;100624.84;10279335;28;20567;-79
2021/05/24 05:44:56;;;;;;;3.60;1.50;;;;;;;10.79;100.00;100636.38;10286731;28;20512;-79
2021/05/24 05:49:57;;;;;;;2.40;0.90;;;;;;;10.76;100.00;100631.72;10248703;28;20130;-78
2021/05/24 05:55:05;;;;;;;1.83;0.88;;;;;;;10.80;100.00;100627.13;10275036;28;20046;-78
2021/05/24 06:00:07;;;;;;;1.63;0.85;;;;;;;10.82;100.00;100618.66;10275248;28;20400;-78
2021/05/24 06:05:10;;;;;;;2.85;0.90;;;;;;;10.84;100.00;100621.75;10244016;28;20034;-79
2021/05/24 06:10:12;;;;;;;4.28;1.02;;;;;;;10.87;100.00;100626.47;10265506;28;20054;-77
2021/05/24 06:15:18;;;;;;;3.43;0.80;;;;;;;10.78;100.00;100634.84;10264468;28;20039;-77
2021/05/24 06:20:23;;;;;;;4.78;1.10;;;;;;;10.79;100.00;100603.94;10274925;28;20731;-79
2021/05/24 06:25:23;;;;;;;4.30;1.25;;;;;;;10.85;100.00;100624.13;10262620;28;20079;-79
2021/05/24 06:30:24;;;;;;;4.28;1.60;;;;;;;10.63;100.00;100606.81;10272289;28;20145;-79
2021/05/24 06:35:25;;;;;;;6.70;2.00;;;;;;;10.35;100.00;100569.38;10263782;28;20560;-79
2021/05/24 06:40:26;;;;;;;4.78;2.25;;;;;;;10.75;100.00;100619.34;10277571;28;20094;-79
2021/05/24 06:45:27;;;;;;;5.93;3.03;;;;;;;10.77;100.00;100617.03;10250972;28;20081;-78
2021/05/24 06:50:27;;;;;;;5.95;3.17;;;;;;;10.63;100.00;100584.41;10277900;28;20089;-78
2021/05/24 06:55:28;;;;;;;5.90;3.45;;;;;;;10.70;100.00;100595.31;10263222;28;20046;-79
2021/05/24 07:00:29;;;;;;;8.13;2.75;;;;;;;10.62;100.00;100593.66;10275505;28;20078;-79
2021/05/24 07:05:31;;;;;;;6.50;2.65;;;;;;;10.36;100.00;100565.50;10294828;28;20043;-80
2021/05/24 07:10:31;;;;;;;6.83;2.97;;;;;;;10.58;100.00;100589.00;10261433;28;20631;-78
2021/05/24 07:15:32;;;;;;;9.15;3.72;;;;;;;10.57;100.00;100560.41;10284552;28;20059;-79
2021/05/24 07:20:33;;;;;;;8.15;3.30;;;;;;;10.66;100.00;100568.25;10275704;28;20043;-80
2021/05/24 07:25:34;;;;;;;6.78;3.17;;;;;;;10.76;100.00;100572.22;10261284;28;20556;-80
2021/05/24 07:30:34;;;;;;;7.50;3.20;;;;;;;10.95;100.00;100596.41;10278889;28;20435;-80
2021/05/24 07:35:38;;;;;;;6.47;2.75;;;;;;;11.00;100.00;100598.78;10265091;28;20051;-79
2021/05/24 07:40:39;;;;;;;7.43;2.90;;;;;;;11.03;100.00;100589.19;10263692;28;20122;-80
2021/05/24 07:45:42;;;;;;;4.22;2.00;;;;;;;11.09;100.00;100589.63;10296310;28;20162;-80
2021/05/24 07:50:42;;;;;;;4.35;2.10;;;;;;;10.97;100.00;100588.72;10259377;28;20138;-80
2021/05/24 07:55:44;;;;;;;5.25;2.30;;;;;;;11.02;100.00;100605.78;10265358;28;20050;-81
2021/05/24 08:00:45;;;;;;;4.32;2.13;;;;;;;10.85;100.00;100580.84;10258382;28;20060;-81
2021/05/24 08:05:45;;;;;;;5.10;2.60;;;;;;;11.03;100.00;100591.09;10291525;28;20077;-79
2021/05/24 08:10:46;;;;;;;6.82;3.00;;;;;;;10.96;100.00;100575.59;10260432;28;21227;-79
2021/05/24 08:15:46;;;;;;;7.22;2.47;;;;;;;10.96;100.00;100560.13;10243033;28;20152;-79
2021/05/24 08:20:48;;;;;;;9.93;3.15;;;;;;;11.23;100.00;100597.91;10256059;28;20051;-79
2021/05/24 08:25:48;;;;;;;5.37;2.60;;;;;;;11.10;100.00;100567.63;10257639;28;20774;-79
2021/05/24 08:30:49;;;;;;;7.68;2.60;;;;;;;11.37;100.00;100594.59;10274367;28;20043;-79
2021/05/24 08:35:50;;;;;;;6.32;3.00;;;;;;;11.48;100.00;100594.72;10244977;28;20039;-79
2021/05/24 08:40:50;;;;;;;5.07;1.92;;;;;;;11.45;100.00;100601.63;10252823;28;20027;-79
2021/05/24 08:45:51;;;;;;;4.00;1.65;;;;;;;11.32;100.00;100593.00;10257079;28;20034;-78
2021/05/24 08:50:52;;;;;;;2.13;1.23;;;;;;;11.51;100.00;100621.81;10278882;28;20386;-78
2021/05/24 08:55:54;;;;;;;3.85;2.05;;;;;;;11.41;100.00;100606.25;10290823;28;20042;-78
2021/05/24 09:00:55;;;;;;;2.90;1.42;;;;;;;11.35;100.00;100596.88;10258922;28;20619;-79
2021/05/24 09:05:59;;;;;;;2.65;1.23;;;;;;;11.52;100.00;100622.59;10284762;28;20126;-78
2021/05/24 09:11:00;;;;;;;4.82;2.15;;;;;;;11.51;100.00;100621.03;10264659;28;20042;-78
2021/05/24 09:16:03;;;;;;;4.25;1.67;;;;;;;11.45;100.00;100590.03;10264305;28;20046;-78
2021/05/24 09:21:13;;;;;;;2.97;1.40;;;;;;;11.40;100.00;100572.97;10273223;28;20056;-78
2021/05/24 09:26:16;;;;;;;2.45;1.52;;;;;;;11.20;100.00;100525.63;10275687;28;20038;-78
2021/05/24 09:31:21;;;;;;;;;;;;;;;11.82;100.00;100582.66;10281685;28;20054;-79
2021/05/24 09:36:21;;;;;;;4.10;2.38;;;;;;;11.97;100.00;100566.53;10282624;28;20056;-79
2021/05/24 09:41:24;;;;;;;3.58;2.35;;;;;;;12.55;100.00;100584.75;10273080;28;20712;-85
2021/05/24 09:46:31;;;;;;;5.18;2.03;;;;;;;12.45;100.00;100569.22;10238110;28;20037;-84
2021/05/24 09:51:37;;;;;;;4.38;2.10;;;;;;;12.62;100.00;100595.66;10300677;28;20167;-81
2021/05/24 09:56:49;;;;;;;3.08;2.00;;;;;;;12.85;100.00;100586.47;10270173;28;20479;-87
2021/05/24 10:02:45;;;;;;;;;;;;;;;;;;;;;
2021/05/24 10:08:36;;;;;;;;;;;;;;;;;;;;;
2021/05/24 10:14:26;;;;;;;1.90;1.30;;;;;;;12.27;90.75;100466.13;10278720;28;20125;-85
2021/05/24 10:20:15;;;;;;;;;;;;;;;;;;;;;
2021/05/24 10:25:43;;;;;;;2.45;1.10;;;;;;;12.12;92.31;100459.84;10169820;29;20153;-83
2021/05/24 10:37:21;;;;;;;2.50;1.10;;;;;;;13.05;92.20;100563.31;10135000;29;20047;-85
2021/05/24 10:43:25;;;;;;;;;;;;;;;;;;;;;
2021/05/24 10:48:44;;;;;;;2.78;1.10;;;;;;;12.75;91.81;100501.19;10166509;29;20047;-83
2021/05/24 10:54:08;;;;;;;2.35;1.20;;;;;;;11.89;91.70;100369.94;10209050;28;20051;-84
2021/05/24 10:59:41;;;;;;;1.92;1.08;;;;;;;12.63;90.48;100521.28;10231924;28;20078;-76
2021/05/24 11:05:00;;;;;;;2.95;1.35;;;;;;;13.20;90.10;100568.78;10274873;28;20089;-77
2021/05/24 11:10:13;;;;;;;1.90;1.10;;;;;;;13.30;91.40;100573.50;10280816;28;20047;-78
2021/05/24 11:15:21;;;;;;;1.65;0.93;;;;;;;13.19;90.80;100583.50;10281469;28;20042;-78
2021/05/24 11:20:31;;;;;;;4.40;1.67;;;;;;;13.24;94.57;100585.84;10272571;28;20420;-76
2021/05/24 11:25:51;;;;;;;2.42;1.30;;;;;;;13.00;91.09;100582.66;10271099;28;20046;-77
2021/05/24 11:31:12;;;;;;;5.47;1.52;;;;;;;13.20;96.95;100579.66;10253692;28;20392;-77
2021/05/24 11:36:14;;;;;;;3.80;1.60;;;;;;;13.37;97.43;100573.50;10266104;28;20059;-78
2021/05/24 11:41:16;;;;;;;3.87;1.30;;;;;;;13.99;92.13;100566.19;10268378;28;20067;-78
2021/05/24 11:46:16;;;;;;;3.60;1.63;;;;;;;13.91;91.83;100563.47;10259266;28;20084;-78
2021/05/24 11:51:18;;;;;;;3.83;1.27;;;;;;;13.30;92.70;100503.69;10288569;28;20034;-83
2021/05/24 11:56:19;;;;;;;5.38;2.17;;;;;;;13.48;96.59;100582.47;10297909;28;20511;-83
2021/05/24 12:01:19;;;;;;;2.90;1.30;;;;;;;13.09;96.12;100552.47;10280540;28;20043;-85
2021/05/24 12:06:27;;;;;;;2.45;1.23;;;;;;;13.46;96.63;100560.34;10245062;28;20050;-83
2021/05/24 12:11:41;;;;;;;3.03;1.45;;;;;;;14.00;92.67;100505.25;10271987;28;20100;-85
2021/05/24 12:17:16;;;;;;;3.78;1.58;;;;;;;14.66;81.91;100521.81;10264600;28;20136;-83
2021/05/24 12:22:26;;;;;;;;;;;;;;;;;;;;;
2021/05/24 12:27:44;;;;;;;5.85;1.58;;;;;;;14.87;80.96;100566.44;10265436;28;20133;-84
2021/05/24 12:33:37;;;;;;;4.70;1.40;;;;;;;15.19;78.57;100518.06;10260966;28;20495;-84
2021/05/24 12:38:55;;;;;;;2.70;1.20;;;;;;;15.04;80.13;100494.81;10283585;28;20050;-82
2021/05/24 12:44:06;;;;;;;3.97;1.38;;;;;;;14.05;76.23;100382.56;10270777;28;20042;-82
2021/05/24 12:49:08;;;;;;;3.13;1.20;;;;;;;15.37;74.86;100544.41;10286691;28;20065;-82
2021/05/24 12:54:10;;;;;;;4.70;1.10;;;;;;;15.40;75.33;100538.16;10300029;28;20231;-84
2021/05/24 12:59:22;;;;;;;3.90;1.38;;;;;;;15.07;76.68;100526.66;10255331;28;20198;-84
2021/05/24 13:04:25;;;;;;;4.20;1.40;;;;;;;14.84;76.82;100540.00;10300554;28;20042;-77
2021/05/24 13:09:27;;;;;;;;;;;;;;;13.75;76.43;100576.66;10282316;28;20385;-75
2021/05/24 13:14:40;;;;;;;6.65;1.50;;;;;;;12.54;86.05;100571.59;10280496;28;19949;-78
2021/05/24 13:19:58;;;;;;;7.18;2.00;;;;;;;12.46;88.18;100549.06;10263086;28;20046;-79
2021/05/24 13:30:13;;;;;;;4.68;1.50;;;;;;;12.90;97.83;100545.41;10275674;28;20039;-77
2021/05/24 13:35:23;;;;;;;1.97;1.00;;;;;;;13.86;94.21;100555.72;10259967;28;20038;-76
2021/05/24 13:40:24;;;;;;;2.35;1.25;;;;;;;14.03;90.46;100528.94;10280630;28;20289;-76
2021/05/24 13:45:25;;;;;;;5.97;1.70;;;;;;;14.14;88.03;100548.72;10284162;28;20035;-76
2021/05/24 13:50:26;;;;;;;6.55;1.30;;;;;;;14.16;81.98;100541.72;10303112;28;20051;-76
2021/05/24 13:55:26;;;;;;;6.07;1.67;;;;;;;14.72;83.59;100528.41;10256026;28;20042;-76
2021/05/24 14:00:31;;;;;;;4.82;1.70;;;;;;;15.37;80.85;100525.34;10265123;28;20039;-76
2021/05/24 14:05:34;;;;;;;3.17;1.13;;;;;;;15.56;75.30;100492.13;10281953;28;20124;-80
2021/05/24 14:10:34;;;;;;;3.45;1.38;;;;;;;15.79;78.59;100477.16;10284467;28;20063;-80
2021/05/24 14:15:35;;;;;;;4.38;1.20;;;;;;;16.02;74.50;100485.50;10285252;28;20121;-80
2021/05/24 14:20:37;;;;;;;2.88;1.08;;;;;;;16.57;68.33;100507.53;10249205;28;20109;-79
2021/05/24 14:25:38;;;;;;;3.17;0.85;;;;;;;16.87;65.20;100502.09;10258024;28;20042;-78
2021/05/24 14:30:39;;;;;;;1.92;0.80;;;;;;;16.92;62.87;100489.19;10244424;28;20085;-80
2021/05/24 14:35:40;;;;;;;2.92;0.90;;;;;;;16.70;60.73;100456.69;10260562;28;20401;-79
2021/05/24 14:40:41;;;;;;;4.15;1.55;;;;;;;16.90;62.58;100476.69;10268231;28;20042;-78
2021/05/24 14:45:41;;;;;;;6.25;1.45;;;;;;;17.38;62.21;100460.38;10255897;28;20643;-84
2021/05/24 14:50:47;;;;;;;1.83;1.00;;;;;;;17.86;63.38;100475.63;10239052;28;20027;-83
2021/05/24 14:55:50;;;;;;;3.60;1.20;;;;;;;17.07;62.40;100370.34;10233355;28;20049;-75
2021/05/24 15:00:51;;;;;;;3.58;1.10;;;;;;;16.61;60.79;100410.03;10295746;28;20031;-75
2021/05/24 15:05:51;;;;;;;2.65;1.15;;;;;;;16.86;64.11;100470.53;10236085;28;20118;-75
2021/05/24 15:10:52;;;;;;;4.55;1.25;;;;;;;16.46;60.92;100483.88;10277608;28;20058;-74
2021/05/24 15:15:52;;;;;;;9.20;1.00;;;;;;;16.19;62.37;100477.56;10272229;28;20066;-75
2021/05/24 15:20:53;;;;;;;2.33;0.77;;;;;;;14.84;64.83;100545.44;10275224;28;20137;-75
2021/05/24 15:25:54;;;;;;;2.83;1.05;;;;;;;13.54;73.54;100533.97;10256025;28;20035;-76
2021/05/24 15:30:56;;;;;;;11.93;1.48;;;;;;;12.99;83.93;100548.56;10278454;28;20043;-76
2021/05/24 15:35:57;;;;;;;4.60;1.00;;;;;;;12.42;82.31;100554.50;10258879;28;20062;-77
2021/05/24 15:40:58;;;;;;;2.67;0.70;;;;;;;12.06;85.75;100526.38;10256988;28;20399;-79
2021/05/24 15:45:59;;;;;;;6.63;0.98;;;;;;;12.12;88.42;100589.91;10273254;28;20027;-78
2021/05/24 15:50:59;;;;;;;13.43;2.17;;;;;;;11.29;94.11;100658.69;10267850;28;20042;-80
2021/05/24 15:56:00;;;;;;;11.30;1.83;;;;;;;10.80;95.31;100627.13;10279666;28;20038;-78
2021/05/24 16:01:01;;;;;;;11.40;1.77;;;;;;;10.96;97.19;100629.69;10261818;28;20662;-78
2021/05/24 16:06:02;;;;;;;3.45;1.33;;;;;;;10.92;97.80;100643.13;10261086;28;20391;-75
2021/05/24 16:11:03;;;;;;;5.00;1.50;;;;;;;10.65;95.60;100592.94;10266123;28;20034;-81
2021/05/24 16:16:03;;;;;;;5.78;0.90;;;;;;;10.97;98.28;100631.22;10286774;28;20050;-81
2021/05/24 16:21:05;;;;;;;5.55;1.10;;;;;;;10.43;97.15;100571.00;10245094;28;20081;-81
2021/05/24 16:26:24;;;;;;;;;;;;;;;;;;;;;
2021/05/24 16:31:45;;;;;;;3.42;0.93;;;;;;;10.40;97.92;100523.09;10236942;28;20051;-78
2021/05/24 16:36:51;;;;;;;3.13;0.82;;;;;;;10.62;97.73;100534.19;10237589;28;20031;-80
2021/05/24 16:41:51;;;;;;;6.13;1.10;;;;;;;10.62;97.37;100523.38;10239876;28;20046;-82
2021/05/24 16:46:52;;;;;;;3.75;1.10;;;;;;;10.13;97.87;100412.34;10227195;28;20537;-81
2021/05/24 16:51:53;;;;;;;6.47;1.50;;;;;;;11.26;98.62;100589.06;10240551;28;20436;-82
2021/05/24 16:57:07;;;;;;;10.93;1.58;;;;;;;10.16;99.04;100452.13;10252567;28;20150;-82
2021/05/24 17:02:14;;;;;;;4.30;0.70;;;;;;;11.29;97.12;100588.34;10239602;28;20918;-83
2021/05/24 17:07:18;;;;;;;2.25;0.80;;;;;;;11.30;95.30;100570.94;10233720;28;20085;-85
2021/05/24 17:12:24;;;;;;;7.00;1.70;;;;;;;10.98;95.93;100503.75;10245141;28;20035;-84
2021/05/24 17:17:27;;;;;;;3.80;0.95;;;;;;;10.04;94.93;100376.75;10249589;28;20069;-82
2021/05/24 17:22:27;;;;;;;5.47;1.85;;;;;;;11.63;98.27;100580.16;10258576;28;20086;-83
2021/05/24 17:27:28;;;;;;;2.83;0.80;;;;;;;10.57;96.40;100414.44;10276671;28;20047;-82
2021/05/24 17:32:29;;;;;;;4.15;0.80;;;;;;;10.43;95.35;100360.25;10285128;28;20043;-82
2021/05/24 17:37:29;;;;;;;2.67;1.00;;;;;;;11.00;95.84;100468.97;10288576;28;20432;-83
2021/05/24 17:42:30;;;;;;;2.70;0.82;;;;;;;10.39;94.88;100397.25;10264321;28;20077;-84
2021/05/24 17:47:30;;;;;;;5.68;1.38;;;;;;;10.75;96.69;100452.50;10262275;28;20089;-83
2021/05/24 17:52:49;;;;;;;1.95;0.82;;;;;;;11.67;94.10;100575.56;10267851;28;20053;-81
2021/05/24 17:57:50;;;;;;;5.88;2.72;;;;;;;11.35;96.41;100516.47;10242410;28;20571;-77
2021/05/24 18:02:51;;;;;;;4.20;1.08;;;;;;;11.63;94.92;100569.34;10277488;28;20031;-78
2021/05/24 18:07:51;;;;;;;2.33;0.90;;;;;;;11.66;94.33;100573.22;10263586;28;20051;-79
2021/05/24 18:12:52;;;;;;;3.50;0.93;;;;;;;11.62;94.27;100573.19;10296635;28;20058;-78
2021/05/24 18:18:00;;;;;;;3.63;1.20;;;;;;;11.56;94.12;100555.72;10264409;28;20405;-77
2021/05/24 18:23:09;;;;;;;2.65;1.30;;;;;;;11.57;92.35;100581.63;10272921;28;20042;-80
2021/05/24 18:28:09;;;;;;;1.95;1.20;;;;;;;11.14;93.63;100537.91;10282378;28;20031;-80
2021/05/24 18:33:10;;;;;;;5.10;1.20;;;;;;;11.47;95.74;100576.91;10284224;28;20502;-78
2021/05/24 18:38:16;;;;;;;2.92;1.20;;;;;;;11.12;98.54;100548.31;10292292;28;20035;-79
2021/05/24 18:43:18;;;;;;;2.40;1.23;;;;;;;11.38;99.35;100591.53;10278298;28;20719;-77
2021/05/24 18:48:19;;;;;;;6.60;3.15;;;;;;;11.27;100.00;100563.56;10272367;28;20396;-78
2021/05/24 18:53:21;;;;;;;6.28;2.97;;;;;;;11.03;100.00;100553.22;10257279;28;20181;-78
2021/05/24 18:58:23;;;;;;;4.13;2.00;;;;;;;11.23;100.00;100589.78;10248642;28;20447;-79
2021/05/24 19:08:24;;;;;;;4.53;2.30;;;;;;;11.18;100.00;100603.66;10275473;28;20038;-76
2021/05/24 19:13:25;;;;;;;7.43;2.40;;;;;;;11.13;100.00;100601.28;10277048;28;20121;-79
2021/05/24 19:18:29;;;;;;;6.03;2.53;;;;;;;11.03;100.00;100618.16;10276411;28;20089;-78
2021/05/24 19:23:31;;;;;;;4.93;2.50;;;;;;;10.45;100.00;100528.19;10276307;28;20436;-78
2021/05/24 19:28:40;;;;;;;6.68;3.00;;;;;;;11.00;100.00;100615.03;10278602;28;20546;-78
2021/05/24 19:33:41;;;;;;;4.40;2.50;;;;;;;10.93;100.00;100620.34;10261703;28;20043;-79
2021/05/24 19:38:41;;;;;;;8.68;3.15;;;;;;;10.88;100.00;100634.19;10261774;28;20286;-79
2021/05/24 19:43:42;;;;;;;6.55;3.13;;;;;;;10.46;100.00;100570.28;10224450;28;20037;-79
2021/05/24 20:26:06;;;;;;;4.45;3.17;;;;;;;10.70;100.00;100665.59;10261181;28;20480;-78
2021/05/24 20:31:07;;;;;;;7.00;3.47;;;;;;;10.58;100.00;100659.28;10275212;28;20047;-80
2021/05/24 20:36:07;;;;;;;5.13;3.10;;;;;;;10.30;100.00;100620.97;10273690;28;20038;-79
2021/05/24 20:41:08;;;;;;;5.95;2.80;;;;;;;10.70;100.00;100665.59;10236325;28;20034;-78
2021/05/24 20:46:09;;;;;;;4.35;2.85;;;;;;;10.72;100.00;100679.53;10267880;28;20051;-78
2021/05/24 20:51:09;;;;;;;5.45;1.23;;;;;;;10.10;97.54;100645.34;10287364;28;20061;-80
2021/05/24 20:56:10;;;;;;;3.17;0.93;;;;;;;10.18;96.18;100699.47;10241990;28;20535;-78
2021/05/24 21:01:11;;;;;;;6.85;1.40;;;;;;;9.92;100.00;100719.84;10295212;28;20038;-78
2021/05/24 21:06:11;;;;;;;6.13;0.90;;;;;;;9.88;100.00;100725.19;10268700;28;20046;-81
2021/05/24 21:11:12;;;;;;;5.75;1.10;;;;;;;9.86;100.00;100710.50;10299710;28;20042;-78
2021/05/24 21:16:13;;;;;;;7.53;1.08;;;;;;;9.71;100.00;100693.22;10262509;28;20089;-79
2021/05/24 21:21:13;;;;;;;5.05;1.00;;;;;;;9.74;100.00;100704.09;10260258;28;20104;-79
2021/05/24 21:26:17;;;;;;;4.10;1.35;;;;;;;9.68;100.00;100700.13;10266989;28;20062;-86
2021/05/24 21:31:21;;;;;;;5.90;1.00;;;;;;;9.69;100.00;100712.50;10277249;28;20047;-80
2021/05/24 21:36:21;;;;;;;2.00;0.57;;;;;;;9.76;100.00;100697.56;10243461;28;20074;-81
2021/05/24 21:41:22;;;;;;;5.65;0.80;;;;;;;9.78;100.00;100703.38;10277070;28;20388;-76
2021/05/24 21:46:22;;;;;;;7.60;2.30;;;;;;;9.28;100.00;100660.78;10277346;28;20580;-82
2021/05/24 21:51:23;;;;;;;7.50;1.58;;;;;;;9.72;100.00;100722.56;10259404;28;20058;-80
2021/05/24 21:56:23;;;;;;;8.77;1.80;;;;;;;9.73;100.00;100707.94;10247890;28;20157;-80
2021/05/24 22:01:24;;;;;;;6.63;1.73;;;;;;;9.82;100.00;100720.44;10284615;28;20047;-81
2021/05/24 22:06:24;;;;;;;3.00;1.02;;;;;;;9.74;100.00;100714.91;10282562;28;20135;-85
2021/05/24 22:11:25;;;;;;;4.72;1.40;;;;;;;9.66;100.00;100713.19;10285786;28;20038;-79
2021/05/24 22:16:27;;;;;;;4.78;2.08;;;;;;;9.50;100.00;100715.97;10283870;28;20113;-80
2021/05/24 22:21:27;;;;;;;4.10;1.05;;;;;;;9.35;100.00;100707.94;10261821;28;20075;-79
2021/05/24 22:26:28;;;;;;;7.60;1.77;;;;;;;9.28;100.00;100714.72;10276610;28;20122;-79
2021/05/24 22:31:28;;;;;;;3.83;1.73;;;;;;;9.25;100.00;100720.06;10256260;28;20045;-79
2021/05/24 22:36:29;;;;;;;5.15;1.88;;;;;;;8.98;100.00;100673.25;10262088;28;20097;-78
2021/05/24 22:41:30;;;;;;;5.65;1.35;;;;;;;9.29;100.00;100721.72;10265377;28;20057;-78
2021/05/24 22:46:33;;;;;;;4.90;1.80;;;;;;;9.37;100.00;100721.84;10281619;28;20418;-79
2021/05/24 22:51:35;;;;;;;4.95;1.58;;;;;;;9.26;100.00;100722.38;10269204;28;20046;-79
2021/05/24 22:56:36;;;;;;;5.77;2.13;;;;;;;9.30;100.00;100734.03;10270961;28;20047;-86
2021/05/24 23:01:37;;;;;;;3.85;1.45;;;;;;;9.25;100.00;100726.25;10248987;28;20027;-86
2021/05/24 23:06:39;;;;;;;4.20;1.98;;;;;;;9.11;100.00;100725.94;10286868;28;20056;-87
2021/05/24 23:11:39;;;;;;;9.07;1.88;;;;;;;9.16;100.00;100728.34;10303888;28;20037;-86
2021/05/24 23:16:40;;;;;;;7.53;1.58;;;;;;;8.93;100.00;100724.75;10283175;28;20468;-85
2021/05/24 23:21:40;;;;;;;7.20;1.67;;;;;;;8.98;100.00;100733.31;10278393;28;20378;-87
2021/05/24 23:26:44;;;;;;;5.40;1.90;;;;;;;9.00;100.00;100731.06;10266090;28;20431;-85
2021/05/24 23:31:44;;;;;;;5.10;1.90;;;;;;;8.92;100.00;100742.06;10245679;28;20042;-79
2021/05/24 23:36:45;;;;;;;5.18;1.95;;;;;;;8.93;100.00;100732.81;10257464;28;20118;-79
2021/05/24 23:41:45;;;;;;;5.43;1.70;;;;;;;8.96;100.00;100756.38;10260877;28;20049;-80
2021/05/24 23:46:46;;;;;;;6.68;1.70;;;;;;;8.88;100.00;100756.22;10278886;28;20065;-81
2021/05/24 23:51:46;;;;;;;5.90;1.80;;;;;;;8.96;100.00;100751.00;10259082;28;20504;-79
2021/05/24 23:56:47;;;;;;;9.30;1.92;;;;;;;8.61;100.00;100697.84;10274513;28;20956;-79
